Oconto, WI

2:21 PM CDT on July 22, 2017 (GMT -0500)
Oconto Municipal

Weather History for KOCQ - November, 2013

Change the Weather History Date:

Wednesday, November 6, 2013

  Actual Average Record
Temperature  
Mean Temperature 37 °F -  
Max Temperature 44 °F 45 °F 66 °F (2016)
Min Temperature 30 °F 26 °F 28 °F (2014)
Degree Days  
Heating Degree Days 28    
Moisture  
Dew Point 34 °F    
Average Humidity 85    
Maximum Humidity 100    
Minimum Humidity 65    
Precipitation  
Precipitation 0.14 in - - ()
Sea Level Pressure  
Sea Level Pressure 29.88 in    
Wind  
Wind Speed 7 mph (NW)    
Max Wind Speed 13 mph    
Max Gust Speed 21 mph    
Visibility 8 miles    
Events      
Averages and records for this station are not official NWS values.
T = Trace of Precipitation, MM = Missing Value Source: NWS Daily Summary

Daily Weather History Graph

Daily Weather History Graph

Search for Another Location

Airport or City:

Trip Planner

Search our weather history database for the weather conditions in past years. The results will help you decide how hot, cold, wet, or windy it might be!

Date:

Astronomy

Nov. 06, 2013 Rise Set
Actual Time 6:37 AM CST 4:32 PM CST
Civil Twilight 6:06 AM CST 5:03 PM CST
Nautical Twilight 5:31 AM CST 5:38 PM CST
Astronomical Twilight 4:56 AM CST 6:12 PM CST
Moon 9:55 AM CST (11/6) 7:33 PM CST (11/6)
Length of Visible Light 10h 57m
Length of Day
9h 55m
Waxing Crescent, 14% of the Moon is Illuminated
Nov 6
Waxing Crescent
Nov 9
First Quarter
Nov 17
Full
Nov 25
Last Quarter
Dec 2
New

Hourly Weather History & Observations

Time (CST) Temp. Windchill Dew Point Humidity Pressure Visibility Wind Dir Wind Speed Gust Speed Precip Events Conditions
12:15 AM 44.6 °F - 44.4 °F 99% 29.86 in 2.5 mi Calm Calm - N/A   Overcast
12:35 AM 44.6 °F 42.2 °F 44.6 °F 100% 29.85 in 2.5 mi NNW 4.6 mph - 0.01 in   Overcast
12:55 AM 43.9 °F 39.9 °F 43.7 °F 99% 29.84 in 3.0 mi NNW 6.9 mph - 0.01 in   Overcast
1:15 AM 43.2 °F 39.0 °F 43.0 °F 99% 29.83 in 5.0 mi North 6.9 mph - 0.01 in   Overcast
1:55 AM 42.1 °F 37.1 °F 41.9 °F 99% 29.81 in 5.0 mi North 8.1 mph - 0.02 in   Overcast
2:15 AM 41.9 °F 37.5 °F 41.4 °F 98% 29.80 in 5.0 mi North 6.9 mph - N/A   Overcast
2:35 AM 41.9 °F 40.0 °F 41.4 °F 98% 29.79 in 5.0 mi North 3.5 mph - N/A   Overcast
2:55 AM 41.5 °F 37.8 °F 41.2 °F 99% 29.78 in 5.0 mi North 5.8 mph - N/A   Overcast
3:15 AM 41.4 °F 37.6 °F 41.0 °F 99% 29.77 in 5.0 mi North 5.8 mph - N/A   Overcast
3:35 AM 41.4 °F 36.8 °F 41.0 °F 99% 29.77 in 5.0 mi North 6.9 mph - 0.01 in   Overcast
3:55 AM 41.4 °F 37.6 °F 41.0 °F 99% 29.77 in 7.0 mi North 5.8 mph - 0.01 in   Overcast
4:15 AM 41.2 °F - 40.6 °F 98% 29.76 in 7.0 mi Calm Calm - 0.01 in   Overcast
4:35 AM 41.0 °F 36.4 °F 40.5 °F 98% 29.76 in 7.0 mi North 6.9 mph - 0.01 in   Overcast
4:55 AM 41.0 °F 36.4 °F 40.3 °F 97% 29.76 in 7.0 mi North 6.9 mph - 0.02 in   Overcast
5:15 AM 40.6 °F 35.4 °F 40.1 °F 98% 29.75 in 7.0 mi North 8.1 mph - N/A   Overcast
5:35 AM 40.3 °F 35.5 °F 39.6 °F 97% 29.75 in 7.0 mi North 6.9 mph - 0.01 in   Overcast
5:55 AM 39.6 °F 33.0 °F 38.8 °F 97% 29.74 in 7.0 mi North 10.4 mph - 0.02 in   Overcast
6:15 AM 39.2 °F 32.5 °F 38.3 °F 97% 29.73 in 7.0 mi North 10.4 mph 16.1 mph N/A   Overcast
6:35 AM 38.7 °F 32.9 °F 37.8 °F 97% 29.74 in 4.0 mi North 8.1 mph - N/A   Overcast
6:55 AM 38.3 °F 31.9 °F 37.4 °F 97% 29.75 in 3.0 mi NNW 9.2 mph - N/A   Overcast
7:15 AM 37.4 °F 30.3 °F 36.9 °F 98% 29.76 in 2.0 mi NNW 10.4 mph - N/A   Overcast
7:35 AM 37.0 °F 30.4 °F 36.5 °F 98% 29.74 in 1.8 mi North 9.2 mph 20.7 mph N/A   Overcast
7:55 AM 37.0 °F 29.3 °F 36.0 °F 96% 29.75 in 3.0 mi North 11.5 mph 17.3 mph N/A   Overcast
8:15 AM 36.9 °F 28.7 °F 35.8 °F 96% 29.76 in 3.0 mi North 12.7 mph 16.1 mph N/A   Overcast
8:35 AM 36.9 °F 29.6 °F 36.0 °F 97% 29.78 in 2.5 mi NNW 10.4 mph 16.1 mph N/A   Overcast
8:55 AM 36.7 °F 29.9 °F 35.8 °F 97% 29.79 in 1.8 mi NNW 9.2 mph - 0.01 in   Overcast
9:15 AM 36.9 °F 30.1 °F 35.8 °F 96% 29.78 in 3.0 mi North 9.2 mph 17.3 mph 0.01 in   Overcast
9:35 AM 37.0 °F 30.4 °F 35.8 °F 95% 29.80 in 7.0 mi NNW 9.2 mph - 0.03 in   Overcast
9:55 AM 37.0 °F 30.4 °F 35.8 °F 95% 29.80 in 4.0 mi NNW 9.2 mph 17.3 mph 0.04 in   Overcast
10:15 AM 36.5 °F 29.7 °F 34.9 °F 94% 29.80 in 7.0 mi NNW 9.2 mph - 0.01 in   Overcast
10:35 AM 35.6 °F 29.2 °F 34.3 °F 95% 29.82 in 5.0 mi NW 8.1 mph - 0.01 in   Overcast
10:55 AM 35.8 °F 30.1 °F 34.7 °F 96% 29.81 in 5.0 mi NNW 6.9 mph - 0.01 in   Overcast
11:15 AM 36.3 °F 28.4 °F 34.9 °F 95% 29.80 in 5.0 mi NNW 11.5 mph 17.3 mph N/A   Overcast
11:35 AM 37.6 °F 31.0 °F 35.6 °F 93% 29.81 in 10.0 mi NNW 9.2 mph 17.3 mph N/A   Overcast
11:55 AM 38.5 °F 31.6 °F 36.0 °F 91% 29.82 in 10.0 mi NW 10.4 mph - N/A   Overcast
12:15 PM 39.2 °F 33.0 °F 36.0 °F 88% 29.82 in 10.0 mi NW 9.2 mph 16.1 mph N/A   Overcast
12:35 PM 40.1 °F 34.7 °F 36.7 °F 88% 29.83 in 10.0 mi NW 8.1 mph - N/A   Overcast
12:55 PM 40.6 °F 33.4 °F 35.4 °F 82% 29.83 in 10.0 mi NW 12.7 mph - N/A   Overcast
1:15 PM 41.0 °F 37.1 °F 35.1 °F 79% 29.84 in 10.0 mi NNW 5.8 mph 18.4 mph N/A   Overcast
1:35 PM 41.0 °F 35.2 °F 34.9 °F 79% 29.86 in 10.0 mi NW 9.2 mph - N/A   Overcast
1:55 PM 40.1 °F 34.1 °F 33.8 °F 78% 29.87 in 10.0 mi NW 9.2 mph 17.3 mph N/A   Overcast
2:15 PM 39.9 °F 35.8 °F 32.7 °F 75% 29.88 in 10.0 mi NW 5.8 mph 19.6 mph N/A   Overcast
2:35 PM 40.1 °F 35.3 °F 32.7 °F 75% 29.88 in 10.0 mi NW 6.9 mph 16.1 mph N/A   Overcast
2:55 PM 40.3 °F 33.4 °F 32.7 °F 74% 29.89 in 10.0 mi NNW 11.5 mph - N/A   Overcast
3:15 PM 40.1 °F 33.6 °F 32.4 °F 74% 29.90 in 10.0 mi NNW 10.4 mph - N/A   Overcast
3:35 PM 40.1 °F 36.1 °F 32.5 °F 74% 29.91 in 10.0 mi NW 5.8 mph - N/A   Overcast
3:55 PM 40.3 °F 34.4 °F 32.5 °F 74% 29.92 in 10.0 mi NW 9.2 mph - N/A   Overcast
4:15 PM 39.7 °F 33.7 °F 32.2 °F 74% 29.94 in 10.0 mi NW 9.2 mph 16.1 mph N/A   Overcast
4:35 PM 39.2 °F 33.0 °F 31.6 °F 74% 29.95 in 10.0 mi NW 9.2 mph 17.3 mph N/A   Overcast
4:55 PM 38.3 °F 33.2 °F 30.2 °F 73% 29.96 in 10.0 mi NW 6.9 mph - N/A   Overcast
5:15 PM 37.9 °F 32.7 °F 30.6 °F 75% 29.98 in 10.0 mi NW 6.9 mph - N/A   Overcast
5:35 PM 37.4 °F 31.4 °F 30.4 °F 76% 29.99 in 10.0 mi WNW 8.1 mph 16.1 mph N/A   Overcast
5:55 PM 36.9 °F 30.1 °F 28.4 °F 71% 30.00 in 10.0 mi NW 9.2 mph - N/A   Overcast
6:15 PM 35.6 °F 27.5 °F 26.6 °F 70% 30.01 in 10.0 mi NW 11.5 mph 16.1 mph N/A   Overcast
6:35 PM 35.8 °F 30.1 °F 26.4 °F 69% 30.02 in 10.0 mi WNW 6.9 mph - N/A   Overcast
6:55 PM 35.6 °F 27.5 °F 26.8 °F 70% 30.03 in 10.0 mi WNW 11.5 mph - N/A   Overcast
7:15 PM 35.4 °F 29.7 °F 25.5 °F 67% 30.03 in 10.0 mi NW 6.9 mph - N/A   Overcast
7:35 PM 34.9 °F 29.0 °F 25.3 °F 68% 30.04 in 10.0 mi WNW 6.9 mph - N/A   Overcast
7:55 PM 34.7 °F 26.9 °F 24.6 °F 67% 30.04 in 10.0 mi WNW 10.4 mph - N/A   Overcast
8:15 PM 34.0 °F 28.0 °F 23.9 °F 67% 30.05 in 10.0 mi NW 6.9 mph - N/A   Overcast
8:35 PM 33.4 °F 27.3 °F 22.6 °F 65% 30.05 in 10.0 mi NW 6.9 mph - N/A   Overcast
8:55 PM 32.2 °F 25.8 °F 23.0 °F 69% 30.05 in 10.0 mi West 6.9 mph - N/A   Mostly Cloudy
9:15 PM 30.4 °F 25.6 °F 23.5 °F 76% 30.06 in 10.0 mi West 4.6 mph - N/A   Scattered Clouds
9:35 PM 30.4 °F 23.6 °F 23.9 °F 77% 30.06 in 10.0 mi WNW 6.9 mph - N/A   Mostly Cloudy
9:55 PM 32.0 °F 26.4 °F 23.0 °F 69% 30.06 in 10.0 mi WNW 5.8 mph - N/A   Scattered Clouds
10:15 PM 31.1 °F 25.4 °F 23.9 °F 75% 30.07 in 10.0 mi West 5.8 mph - N/A   Mostly Cloudy
10:35 PM 30.9 °F 25.2 °F 24.3 °F 76% 30.07 in 10.0 mi West 5.8 mph - N/A   Overcast
10:55 PM 31.1 °F 24.5 °F 24.8 °F 77% 30.07 in 10.0 mi West 6.9 mph - N/A   Overcast
11:15 PM 31.6 °F 23.1 °F 24.8 °F 76% 30.07 in 10.0 mi West 10.4 mph - N/A   Overcast
11:35 PM 32.0 °F 24.2 °F 24.1 °F 73% 30.07 in 10.0 mi West 9.2 mph - N/A   Overcast
11:55 PM 31.5 °F 22.3 °F 24.6 °F 76% 30.08 in 10.0 mi West 11.5 mph - N/A   Overcast